Погода Бановичина 2 недели

Биельина, Босния и Герцеговина

12 - 25 июля
  • 12июля
    Сегодня
    +19°
    +36°
    Практически безоблачно
    ВремяПогодаТемператураВлажностьДавлениеВетер, м/сВероятность осадков
    02:00Ясно и безоблачно+21°C70 %729 мм0.7 м/с2 %
    05:00Ясно и безоблачно+20°C83 %728 мм0.6 м/с2 %
    08:00Ясно и безоблачно+24°C71 %729 мм0.6 м/с2 %
    11:00Практически безоблачно+32°C50 %729 мм1.5 м/с2 %
    14:00Практически безоблачно+36°C34 %728 мм2.3 м/с2 %
    17:00Практически безоблачно+34°C37 %727 мм2.2 м/с3 %
    20:00Ясно и безоблачно+30°C60 %726 мм1.7 м/с2 %
    23:00Ясно и безоблачно+24°C72 %726 мм1.0 м/с2 %
  • 13июля
    Суббота
    +20°
    +36°
    Ясно и безоблачно
    ВремяПогодаТемператураВлажностьДавлениеВетер, м/сВероятность осадков
    02:00Ясно и безоблачно+21°C73 %725 мм1.0 м/с2 %
    05:00Ясно и безоблачно+20°C80 %726 мм0.8 м/с2 %
    08:00Ясно и безоблачно+24°C70 %727 мм0.6 м/с2 %
    11:00Ясно и безоблачно+32°C38 %728 мм1.0 м/с2 %
    14:00Ясно и безоблачно+36°C31 %728 мм2.1 м/с2 %
    17:00Практически безоблачно+34°C34 %727 мм4.2 м/с2 %
    20:00Ясно и безоблачно+29°C51 %727 мм1.2 м/с2 %
    23:00Ясно и безоблачно+25°C63 %727 мм1.0 м/с2 %
  • 14июля
    Воскресенье
    +19°
    +36°
    Практически безоблачно
    ВремяПогодаТемператураВлажностьДавлениеВетер, м/сВероятность осадков
    02:00Ясно и безоблачно+22°C72 %727 мм0.9 м/с2 %
    05:00Ясно и безоблачно+20°C72 %727 мм0.9 м/с2 %
    08:00Ясно и безоблачно+25°C59 %728 мм0.6 м/с2 %
    11:00Ясно и безоблачно+32°C39 %729 мм1.4 м/с2 %
    14:00Практически безоблачно+35°C32 %728 мм2.8 м/с3 %
    17:00Облачно с прояснениями+32°C32 %728 мм1.4 м/с11 %
    20:00Ясно и безоблачно+28°C62 %728 мм1.6 м/с4 %
    23:00Ясно и безоблачно+24°C68 %728 мм0.1 м/с2 %
  • 15июля
    Понедельник
    +19°
    +35°
    Ясно и безоблачно
    ВремяПогодаТемператураВлажностьДавлениеВетер, м/сВероятность осадков
    02:00Ясно и безоблачно+21°C72 %728 мм0.8 м/с2 %
    05:00Ясно и безоблачно+20°C74 %728 мм0.8 м/с2 %
    08:00Ясно и безоблачно+25°C63 %730 мм0.9 м/с2 %
    11:00Ясно и безоблачно+31°C51 %730 мм1.9 м/с2 %
    14:00Ясно и безоблачно+35°C37 %729 мм2.5 м/с3 %
    17:00Практически безоблачно+35°C34 %728 мм2.6 м/с3 %
    20:00Практически безоблачно+31°C57 %728 мм1.3 м/с4 %
    23:00Ясно и безоблачно+25°C51 %728 мм0.8 м/с2 %
  • 16июля
    Вторник
    +20°
    +37°
    Ясно и безоблачно
    ВремяПогодаТемператураВлажностьДавлениеВетер, м/сВероятность осадков
    02:00Ясно и безоблачно+20°C68 %727 мм1.3 м/с2 %
    05:00Ясно и безоблачно+20°C68 %727 мм0.8 м/с2 %
    08:00Ясно и безоблачно+26°C61 %728 мм0.7 м/с2 %
    11:00Ясно и безоблачно+33°C40 %729 мм1.8 м/с2 %
    14:00Ясно и безоблачно+36°C29 %729 мм3.1 м/с7 %
    17:00Практически безоблачно+36°C30 %728 мм2.3 м/с10 %
    20:00Ясно и безоблачно+32°C52 %727 мм1.2 м/с4 %
    23:00Ясно и безоблачно+27°C52 %728 мм0.0 м/с2 %
Мы используем cookies
Соглашаюсь